Latest Weather Observations for Avalon

IDV60901

Issued at 5:41 am EDT Wednesday 13 November 2019 (issued every 10 minutes, with the page automatically refreshed every 10 minutes)

About weather observations | Map of Melbourne area stations | Latest observations for Melbourne area | Other Formats
Station Details ID: 087113 Name: AVALON AIRPORT Lat: -38.03 Lon: 144.48 Height: 10.6 m
Data from the previous 72 hours. | See also: Recent months at Avalon
Date/Time
EDT
Temp
°C
App
Temp
°C
Dew
Point
°C
Rel
Hum
%
Delta-T
°C
Wind Press
QNH
hPa
Press
MSL
hPa
Rain since
9am
mm
Dir  Spd
km/h
Gust
km/h
Spd
kts
Gust
kts
13/05:30am 8.6 3.3 6.9 89 0.8 WNW 24 32 13 17 1014.9 1014.9 0.2
13/05:00am 8.0 3.7 6.8 92 0.6 WNW 19 24 10 13 1014.7 1014.7 0.2
13/04:30am 7.5 3.0 6.1 91 0.6 WNW 19 20 10 11 1014.7 1014.7 0.2
13/04:00am 7.8 3.3 6.1 89 0.8 WNW 19 24 10 13 1014.9 1014.9 0.2
13/03:30am 8.2 3.6 6.5 89 0.8 WNW 20 26 11 14 1015.2 1015.2 0.2
13/03:00am 7.6 2.9 6.1 90 0.7 WNW 20 26 11 14 1015.4 1015.4 0.2
13/02:30am 8.0 3.3 6.1 88 0.9 WNW 20 28 11 15 1015.6 1015.6 0.2
13/02:00am 8.2 2.0 6.3 88 0.9 WNW 28 35 15 19 1015.7 1015.7 0.2
13/01:30am 7.8 2.7 6.1 89 0.8 WNW 22 30 12 16 1015.6 1015.6 0.2
13/01:00am 7.8 2.6 5.6 86 1.0 WNW 22 28 12 15 1015.7 1015.7 0.2
13/12:30am 7.8 2.6 5.6 86 1.0 WNW 22 30 12 16 1015.9 1015.9 0.2
13/12:00am 7.7 2.9 5.7 87 0.9 W 20 26 11 14 1015.6 1015.6 0.2
 
Date/Time
EDT
Temp
°C
App
Temp
°C
Dew
Point
°C
Rel
Hum
%
Delta-T
°C
Wind Press
QNH
hPa
Press
MSL
hPa
Rain since
9am
mm
Dir  Spd
km/h
Gust
km/h
Spd
kts
Gust
kts
12/11:30pm 7.9 2.7 5.4 84 1.1 WNW 22 32 12 17 1015.5 1015.5 0.2
12/11:00pm 8.2 3.0 5.5 83 1.2 WNW 22 28 12 15 1015.5 1015.5 0.2
12/10:30pm 8.6 4.4 5.9 83 1.2 W 17 24 9 13 1015.6 1015.6 0.2
12/10:00pm 9.2 3.3 5.6 78 1.6 W 26 37 14 20 1015.0 1015.0 0.2
12/09:30pm 9.4 3.9 5.9 79 1.6 W 24 33 13 18 1014.7 1014.7 0.2
12/09:00pm 8.7 3.2 5.8 82 1.3 W 24 35 13 19 1014.0 1014.0 0.2
12/08:30pm 9.2 3.3 5.8 79 1.6 W 26 44 14 24 1013.5 1013.5 0.2
12/08:00pm 10.0 3.9 6.5 79 1.6 W 28 44 15 24 1013.4 1013.4 0.2
12/07:30pm 9.8 2.0 6.7 81 1.5 W 37 46 20 25 1012.7 1012.7 0.2
12/07:00pm 10.3 1.2 5.7 73 2.1 W 43 65 23 35 1012.4 1012.4 0.0
12/06:40pm 12.6 4.2 5.8 63 3.2 W 39 57 21 31 1011.6 1011.6 0.0
12/06:30pm 12.9 3.6 5.1 59 3.6 WSW 43 57 23 31 1011.5 1011.5 0.0
12/06:06pm 13.7 5.0 4.0 52 4.4 W 39 57 21 31 1011.3 1011.3 0.0
12/06:00pm 14.0 5.3 4.3 52 4.5 W 39 56 21 30 1011.2 1011.2 0.0
12/05:30pm 14.2 5.0 3.7 49 4.8 W 41 59 22 32 1010.7 1010.7 0.0
12/05:00pm 14.3 4.0 4.6 52 4.5 W 48 72 26 39 1010.4 1010.4 0.0
12/04:41pm 14.5 6.5 5.8 56 4.1 W 37 56 20 30 1010.1 1010.1 0.0
12/04:30pm 14.5 6.0 5.3 54 4.3 WSW 39 52 21 28 1010.0 1010.0 0.0
12/04:04pm 13.9 3.3 5.0 55 4.1 WSW 50 74 27 40 1009.8 1009.8 0.0
12/04:00pm 15.4 5.1 4.5 48 5.1 WSW 48 63 26 34 1009.5 1009.5 0.0
12/03:51pm 15.8 5.8 4.5 47 5.3 WSW 46 70 25 38 1009.4 1009.4 0.0
12/03:30pm 16.7 9.1 5.6 48 5.3 W 35 56 19 30 1009.3 1009.3 0.0
12/03:00pm 16.6 7.7 5.3 47 5.4 W 41 61 22 33 1009.3 1009.3 0.0
12/02:33pm 17.1 7.7 4.4 43 6.0 W 43 63 23 34 1009.2 1009.2 0.0
12/02:30pm 15.7 6.8 5.3 50 4.9 W 41 54 22 29 1009.3 1009.3 0.0
12/02:23pm 16.0 6.9 4.1 45 5.5 W 41 54 22 29 1009.2 1009.2 0.0
12/02:19pm 16.4 7.8 4.8 46 5.5 W 39 52 21 28 1009.1 1009.1 0.0
12/02:00pm 15.3 8.3 6.8 57 4.2 WSW 33 61 18 33 1009.4 1009.4 0.0
12/01:30pm 15.7 7.2 5.3 50 4.9 W 39 57 21 31 1009.5 1009.5 0.0
12/01:02pm 12.7 4.5 8.4 75 2.1 W 41 67 22 36 1009.7 1009.7 0.0
12/01:00pm 13.5 5.4 7.1 65 3.1 W 39 67 21 36 1009.4 1009.4 0.0
12/12:58pm 15.1 7.2 4.5 49 4.9 W 35 57 19 31 1009.3 1009.3 0.0
12/12:30pm 16.1 6.7 4.2 45 5.5 W 43 56 23 30 1009.3 1009.3 0.0
12/12:00pm 14.6 6.9 5.4 54 4.4 W 35 46 19 25 1009.5 1009.5 0.0
12/11:38am 15.6 6.8 3.7 45 5.5 WSW 39 57 21 31 1009.2 1009.2 0.0
12/11:30am 15.3 6.6 4.1 47 5.2 WSW 39 54 21 29 1009.2 1009.2 0.0
12/11:00am 15.3 9.1 6.3 55 4.4 W 28 48 15 26 1009.1 1009.1 0.0
12/10:31am 14.0 6.4 5.6 57 4.0 W 35 54 19 29 1009.2 1009.2 0.0
12/10:30am 14.0 6.5 6.1 59 3.8 W 35 50 19 27 1009.2 1009.2 0.0
12/10:13am 14.1 6.6 6.2 59 3.8 WSW 35 56 19 30 1008.9 1008.9 0.0
12/10:00am 13.8 6.8 6.2 60 3.6 WSW 32 46 17 25 1008.8 1008.8 0.0
12/09:51am 11.9 5.6 7.6 75 2.1 WSW 30 48 16 26 1008.8 1008.8 0.0
12/09:30am 13.6 6.2 6.7 63 3.3 WSW 35 44 19 24 1008.5 1008.5 0.0
12/09:16am 12.9 7.0 7.4 69 2.7 WSW 28 48 15 26 1008.5 1008.5 0.0
12/09:00am 11.7 6.7 8.2 79 1.7 W 24 33 13 18 1008.6 1008.6 0.2
12/08:55am 11.6 7.2 9.0 84 1.3 W 22 30 12 16 1008.6 1008.6 0.2
12/08:39am 11.0 5.2 8.1 82 1.4 WSW 28 37 15 20 1008.5 1008.5 0.2
12/08:30am 12.2 6.2 7.1 71 2.5 W 28 39 15 21 1008.2 1008.2 0.2
12/08:00am 12.2 7.1 7.7 74 2.2 W 24 33 13 18 1007.6 1007.6 0.2
12/07:30am 11.3 6.6 7.8 79 1.7 W 22 30 12 16 1007.2 1007.2 0.2
12/07:00am 11.1 6.8 7.8 80 1.6 W 20 24 11 13 1006.8 1006.8 0.2
12/06:30am 11.4 7.1 7.7 78 1.8 W 20 30 11 16 1006.5 1006.5 0.2
12/06:00am 11.7 5.8 7.4 75 2.1 W 28 43 15 23 1005.8 1005.8 0.2
12/05:30am 12.6 7.0 8.7 77 1.9 WSW 28 39 15 21 1004.9 1004.9 0.2
12/05:00am 12.9 8.4 9.9 82 1.5 WSW 24 37 13 20 1004.5 1004.5 0.2
12/04:30am 13.3 8.6 10.7 84 1.4 SW 26 37 14 20 1003.8 1003.8 0.2
12/04:00am 14.5 9.6 11.3 81 1.7 W 28 41 15 22 1002.8 1002.8 0.2
12/03:30am 14.4 7.4 11.4 82 1.6 W 39 48 21 26 1001.9 1001.9 0.2
12/03:00am 14.8 8.0 10.6 76 2.2 W 37 48 20 26 1001.8 1001.8 0.2
12/02:33am 16.3 11.0 9.9 66 3.4 W 28 46 15 25 1001.2 1001.2 0.2
12/02:30am 16.2 11.6 9.8 66 3.3 W 24 41 13 22 1000.8 1000.8 0.2
12/02:04am 17.3 12.7 9.5 60 4.1 W 24 46 13 25 1000.5 1000.5 0.2
12/02:00am 16.7 13.0 9.6 63 3.7 W 19 28 10 15 1000.5 1000.5 0.2
12/01:48am 16.8 11.5 9.7 63 3.7 WSW 28 50 15 27 1000.0 1000.0 0.2
12/01:30am 16.7 13.7 9.1 61 3.9 W 15 30 8 16 998.8 998.8 0.2
12/01:00am 16.8 13.6 8.5 58 4.3 WNW 15 19 8 10 999.5 999.5 0.2
12/12:30am 18.4 15.3 8.7 53 5.0 WNW 15 19 8 10 1000.6 1000.6 0.2
12/12:00am 22.6 16.4 4.2 30 9.0 W 26 37 14 20 1000.7 1000.7 0.2
 
Date/Time
EDT
Temp
°C
App
Temp
°C
Dew
Point
°C
Rel
Hum
%
Delta-T
°C
Wind Press
QNH
hPa
Press
MSL
hPa
Rain since
9am
mm
Dir  Spd
km/h
Gust
km/h
Spd
kts
Gust
kts
11/11:34pm 21.0 15.2 2.3 29 8.7 NW 22 44 12 24 1000.7 1000.7 0.2
11/11:30pm 20.8 15.3 1.6 28 8.8 NNW 20 30 11 16 999.9 999.9 0.2
11/11:00pm 22.7 15.9 1.1 24 10.0 N 26 35 14 19 999.6 999.6 0.2
11/10:30pm 23.6 17.0 1.9 24 10.2 N 26 35 14 19 999.9 999.9 0.2
11/10:00pm 23.8 17.3 2.6 25 10.2 N 26 32 14 17 1000.0 1000.0 0.2
11/09:30pm 23.0 17.1 4.0 29 9.3 N 24 32 13 17 1000.7 1000.7 0.2
11/09:00pm 21.8 16.9 5.3 34 8.2 N 20 26 11 14 1000.8 1000.8 0.2
11/08:30pm 24.7 19.3 4.5 27 10.1 NNE 22 32 12 17 1001.1 1001.1 0.2
11/08:00pm 24.8 20.6 5.6 29 9.8 N 17 20 9 11 1002.7 1002.7 0.2
11/07:30pm 25.5 21.9 6.7 30 9.8 N 15 17 8 9 1003.5 1003.5 0.2
11/07:00pm 27.2 23.8 6.0 26 11.1 NNW 13 17 7 9 1003.6 1003.6 0.2
11/06:30pm 27.9 23.1 4.9 23 11.8 NNW 19 22 10 12 1003.7 1003.7 0.2
11/06:00pm 28.0 23.9 6.2 25 11.5 NNW 17 26 9 14 1004.1 1004.1 0.2
11/05:30pm 29.2 22.7 4.6 21 12.6 NNW 28 37 15 20 1004.6 1004.6 0.2
11/05:00pm 29.7 22.9 5.1 21 12.8 NNW 30 44 16 24 1005.1 1005.1 0.2
11/04:30pm 29.6 22.4 5.0 21 12.8 NW 32 43 17 23 1005.4 1005.4 0.2
11/04:00pm 30.3 22.9 4.9 20 13.3 NW 33 46 18 25 1005.8 1005.8 0.2
11/03:30pm 28.5 20.2 4.1 21 12.4 NW 37 52 20 28 1006.3 1006.3 0.2
11/03:00pm 29.1 22.5 7.7 26 11.6 NNW 32 46 17 25 1006.8 1006.8 0.2
11/02:30pm 28.0 21.9 8.3 29 10.7 NNW 30 41 16 22 1007.3 1007.3 0.2
11/02:00pm 28.3 22.8 9.1 30 10.6 NNW 28 43 15 23 1007.8 1007.8 0.2
11/01:30pm 27.1 21.2 9.0 32 9.9 NNW 30 41 16 22 1008.2 1008.2 0.2
11/01:00pm 26.4 20.4 8.8 33 9.6 NNW 30 44 16 24 1008.8 1008.8 0.2
11/12:30pm 25.1 19.3 8.1 34 9.1 NNW 28 41 15 22 1009.3 1009.3 0.2
11/12:00pm 25.3 20.1 7.4 32 9.5 NNW 24 35 13 19 1009.7 1009.7 0.2
11/11:30am 24.3 18.7 7.0 33 9.0 NW 26 35 14 19 1010.1 1010.1 0.2
11/11:00am 23.8 19.4 7.4 35 8.6 NW 20 30 11 16 1010.5 1010.5 0.2
11/10:30am 22.6 16.6 7.2 37 8.0 NW 28 35 15 19 1010.9 1010.9 0.2
11/10:19am 23.1 19.4 8.0 38 8.0 NNW 17 41 9 22 1011.0 1011.0 0.2
11/10:00am 20.9 19.9 10.4 51 5.7 NW 6 13 3 7 1011.5 1011.5 0.2
11/09:30am 18.0 17.0 12.2 69 3.2 SSE 9 11 5 6 1011.8 1011.8 0.2
11/09:00am 16.6 17.1 11.7 73 2.7 CALM 0 6 0 3 1012.0 1012.0 0.0
11/08:30am 14.0 14.0 11.0 82 1.6 WSW 2 7 1 4 1012.2 1012.2 0.0
11/08:00am 13.6 14.0 11.1 85 1.3 CALM 0 2 0 1 1012.0 1012.0 0.0
11/07:30am 10.9 9.8 10.1 95 0.4 ENE 6 7 3 4 1011.6 1011.6 0.0
11/07:00am 7.8 5.6 7.7 99 0.0 NE 9 11 5 6 1011.1 1011.1 0.0
11/06:30am 7.7 4.7 7.6 99 0.0 NNE 13 19 7 10 1010.9 1010.9 0.0
11/06:00am 7.4 4.3 7.3 99 0.0 NNE 13 17 7 9 1010.7 1010.7 0.0
11/05:30am 8.7 5.9 8.7 100 0.0 NNE 13 17 7 9 1011.1 1011.1 0.0
11/05:00am 7.4 5.1 7.4 100 0.0 ENE 9 13 5 7 1011.4 1011.4 0.0
11/04:30am 7.4 3.9 7.4 100 0.0 N 15 17 8 9 1011.8 1011.8 0.0
11/04:00am 8.4 5.2 8.4 100 0.0 N 15 17 8 9 1012.1 1012.1 0.0
11/03:30am 7.9 7.4 7.9 100 0.0 CALM 0 0 0 0 1012.6 1012.6 0.0
11/03:00am 7.4 5.5 7.4 100 0.0 N 7 9 4 5 1012.7 1012.7 0.0
11/02:30am 8.1 6.0 8.1 100 0.0 N 9 11 5 6 1013.1 1013.1 0.0
11/02:00am 9.4 7.6 9.4 100 0.0 NW 9 9 5 5 1013.5 1013.5 0.0
11/01:30am 10.5 9.4 10.5 100 0.0 NW 7 9 4 5 1014.1 1014.1 0.0
11/01:00am 10.8 9.7 10.8 100 0.0 NNW 7 9 4 5 1014.8 1014.8 0.0
11/12:30am 11.6 10.8 11.6 100 0.0 NW 7 9 4 5 1015.3 1015.3 0.0
11/12:00am 11.5 9.9 11.5 100 0.0 WNW 11 13 6 7 1015.9 1015.9 0.0
 
Date/Time
EDT
Temp
°C
App
Temp
°C
Dew
Point
°C
Rel
Hum
%
Delta-T
°C
Wind Press
QNH
hPa
Press
MSL
hPa
Rain since
9am
mm
Dir  Spd
km/h
Gust
km/h
Spd
kts
Gust
kts
10/11:30pm 11.5 9.9 11.5 100 0.0 NW 11 13 6 7 1016.1 1016.1 0.0
10/11:00pm 10.2 8.2 10.2 100 0.0 NNW 11 13 6 7 1015.7 1015.7 0.0
10/10:30pm 11.6 11.0 11.6 100 0.0 NW 6 7 3 4 1016.1 1016.1 0.0
10/10:00pm 12.2 11.5 12.0 99 0.1 W 7 9 4 5 1016.2 1016.2 0.0
10/09:30pm 12.5 12.0 12.2 98 0.2 SSW 6 7 3 4 1015.9 1015.9 0.0
10/09:00pm 13.4 13.1 13.2 99 0.1 W 7 9 4 5 1016.3 1016.3 0.0
10/08:30pm 13.5 13.2 13.3 99 0.1 W 7 11 4 6 1016.2 1016.2 0.0
10/08:00pm 13.3 13.1 13.1 99 0.1 WSW 6 9 3 5 1016.1 1016.1 0.0
10/07:58pm 13.3 13.1 13.1 99 0.1 WSW 6 9 3 5 1016.1 1016.1 0.0
10/07:30pm 13.7 10.7 12.6 93 0.6 W 20 28 11 15 1016.2 1016.2 0.0
10/07:00pm 15.2 12.5 11.6 79 1.9 W 17 22 9 12 1015.7 1015.7 0.0
10/06:30pm 15.2 12.0 11.8 80 1.8 W 20 24 11 13 1015.7 1015.7 0.0
10/06:00pm 15.1 11.6 10.9 76 2.2 WSW 20 26 11 14 1015.8 1015.8 0.0
10/05:30pm 16.1 12.2 10.8 71 2.8 WNW 22 32 12 17 1015.6 1015.6 0.0
10/05:00pm 16.0 11.8 11.2 73 2.6 W 24 32 13 17 1015.7 1015.7 0.0
10/04:30pm 15.4 10.5 11.2 76 2.2 W 28 39 15 21 1015.8 1015.8 0.0
10/04:00pm 17.3 13.0 10.7 65 3.5 WNW 24 32 13 17 1015.5 1015.5 0.0
10/03:30pm 16.1 11.1 10.8 71 2.8 W 28 37 15 20 1015.9 1015.9 0.0
10/03:00pm 16.7 13.2 10.8 68 3.1 W 20 30 11 16 1016.1 1016.1 0.0
10/02:30pm 16.6 12.1 10.0 65 3.5 WNW 24 37 13 20 1016.3 1016.3 0.0
10/02:00pm 15.5 9.6 10.3 71 2.7 W 32 41 17 22 1016.6 1016.6 0.0
10/01:30pm 16.0 10.8 10.1 68 3.1 W 28 37 15 20 1016.6 1016.6 0.0
10/01:00pm 16.6 12.7 10.9 69 3.0 W 22 30 12 16 1016.6 1016.6 0.0
10/12:37pm 15.9 10.7 10.2 69 3.0 W 28 46 15 25 1016.6 1016.6 0.0
10/12:30pm 16.5 11.7 10.4 67 3.2 W 26 37 14 20 1016.6 1016.6 0.0
10/12:00pm 16.2 11.0 10.3 68 3.1 WSW 28 39 15 21 1016.8 1016.8 0.0
10/11:30am 15.8 11.1 10.8 72 2.7 W 26 39 14 21 1016.9 1016.9 0.0
10/11:00am 14.2 8.9 10.0 76 2.2 W 28 37 15 20 1017.1 1017.1 0.0
10/10:30am 14.3 9.3 10.9 80 1.8 W 28 39 15 21 1017.1 1017.1 0.0
10/10:00am 13.6 7.9 11.0 84 1.4 W 32 43 17 23 1017.1 1017.1 0.0
10/09:52am 13.6 7.7 11.3 86 1.2 W 33 43 18 23 1017.1 1017.1 0.0
10/09:30am 13.3 9.0 12.2 93 0.6 W 26 35 14 19 1017.0 1017.0 0.0
10/09:00am 12.1 7.4 11.9 99 0.1 WNW 28 39 15 21 1016.9 1016.9 0.4
10/08:30am 11.8 7.8 11.8 100 0.0 WNW 24 32 13 17 1016.6 1016.6 0.4
10/08:15am 11.7 8.1 11.7 100 0.0 W 22 30 12 16 1016.4 1016.4 0.4
10/08:00am 11.0 8.5 11.0 100 0.0 W 15 24 8 13 1016.4 1016.4 0.4
10/07:30am 10.6 7.0 10.6 100 0.0 W 20 28 11 15 1016.1 1016.1 0.0
10/07:10am 10.7 6.7 10.5 99 0.1 W 22 30 12 16 1015.9 1015.9 0.0
10/07:09am 10.6 6.6 10.4 99 0.1 W 22 33 12 18 1015.9 1015.9 0.0
10/07:00am 10.8 6.1 10.5 98 0.2 WNW 26 33 14 18 1015.8 1015.8 0.0
10/06:37am 10.8 6.8 10.3 97 0.3 WNW 22 28 12 15 1015.4 1015.4 0.0
10/06:30am 10.7 7.1 10.4 98 0.2 WNW 20 28 11 15 1015.3 1015.3 0.0
10/06:00am 10.8 6.3 10.2 96 0.3 WNW 24 32 13 17 1015.0 1015.0 0.0

Latest Capital City Observations: Canberra | Sydney | Melbourne | Brisbane | Adelaide | Perth | Hobart | Darwin

Other formats

Comma delimited format used in spreadsheet applications
http://www.bom.gov.au/fwo/IDV60901/IDV60901.94854.axf

JavaScript Object Notation format (JSON) in row-major order
http://www.bom.gov.au/fwo/IDV60901/IDV60901.94854.json

Data quality

Most of these data are generated automatically and are frequently updated. Quality checks on data are not normally performed. It is possible for incorrect values to appear. Refer to information at About Latest Weather Observations and please check the disclaimer before using these data.